sensor_id;sensor_type;location;lat;lon;timestamp;P1;durP1;ratioP1;P2;durP2;ratioP2
77451;SDS011;66537;52.370;4.832;2023-02-28T00:02:12;8.40;;;1.90;;
77451;SDS011;66537;52.370;4.832;2023-02-28T00:04:38;16.33;;;2.10;;
77451;SDS011;66537;52.370;4.832;2023-02-28T00:07:03;11.07;;;1.60;;
77451;SDS011;66537;52.370;4.832;2023-02-28T00:09:28;7.53;;;1.53;;
77451;SDS011;66537;52.370;4.832;2023-02-28T00:11:54;14.20;;;1.67;;
77451;SDS011;66537;52.370;4.832;2023-02-28T00:14:19;6.90;;;1.83;;
77451;SDS011;66537;52.370;4.832;2023-02-28T00:16:44;6.90;;;1.60;;
77451;SDS011;66537;52.370;4.832;2023-02-28T00:19:10;7.75;;;2.05;;
77451;SDS011;66537;52.370;4.832;2023-02-28T00:21:38;13.70;;;1.80;;
77451;SDS011;66537;52.370;4.832;2023-02-28T00:24:05;6.03;;;1.33;;
77451;SDS011;66537;52.370;4.832;2023-02-28T00:26:31;7.85;;;2.15;;
77451;SDS011;66537;52.370;4.832;2023-02-28T00:28:57;9.30;;;1.98;;
77451;SDS011;66537;52.370;4.832;2023-02-28T00:31:22;9.35;;;1.92;;
77451;SDS011;66537;52.370;4.832;2023-02-28T00:33:48;13.25;;;2.35;;
77451;SDS011;66537;52.370;4.832;2023-02-28T00:36:13;10.73;;;2.17;;
77451;SDS011;66537;52.370;4.832;2023-02-28T00:38:38;10.30;;;2.03;;
77451;SDS011;66537;52.370;4.832;2023-02-28T00:41:05;7.05;;;1.80;;
77451;SDS011;66537;52.370;4.832;2023-02-28T00:43:35;6.10;;;1.60;;
77451;SDS011;66537;52.370;4.832;2023-02-28T00:46:02;10.43;;;1.88;;
77451;SDS011;66537;52.370;4.832;2023-02-28T00:48:28;5.90;;;1.40;;
77451;SDS011;66537;52.370;4.832;2023-02-28T00:50:53;10.43;;;2.00;;
77451;SDS011;66537;52.370;4.832;2023-02-28T00:53:19;9.82;;;1.95;;
77451;SDS011;66537;52.370;4.832;2023-02-28T00:55:45;8.48;;;1.98;;
77451;SDS011;66537;52.370;4.832;2023-02-28T00:58:10;9.77;;;2.03;;
77451;SDS011;66537;52.370;4.832;2023-02-28T01:00:35;7.75;;;1.98;;
77451;SDS011;66537;52.370;4.832;2023-02-28T01:03:01;9.35;;;2.22;;
77451;SDS011;66537;52.370;4.832;2023-02-28T01:05:26;8.82;;;2.35;;
77451;SDS011;66537;52.370;4.832;2023-02-28T01:07:52;9.43;;;2.08;;
77451;SDS011;66537;52.370;4.832;2023-02-28T01:10:17;7.53;;;1.83;;
77451;SDS011;66537;52.370;4.832;2023-02-28T01:12:43;10.13;;;2.67;;
77451;SDS011;66537;52.370;4.832;2023-02-28T01:15:10;9.13;;;2.00;;
77451;SDS011;66537;52.370;4.832;2023-02-28T01:17:36;8.50;;;1.88;;
77451;SDS011;66537;52.370;4.832;2023-02-28T01:20:01;9.20;;;2.50;;
77451;SDS011;66537;52.370;4.832;2023-02-28T01:22:27;7.38;;;1.90;;
77451;SDS011;66537;52.370;4.832;2023-02-28T01:24:53;6.28;;;1.70;;
77451;SDS011;66537;52.370;4.832;2023-02-28T01:27:19;7.03;;;2.35;;
77451;SDS011;66537;52.370;4.832;2023-02-28T01:29:44;10.63;;;3.33;;
77451;SDS011;66537;52.370;4.832;2023-02-28T01:32:10;8.77;;;2.50;;
77451;SDS011;66537;52.370;4.832;2023-02-28T01:34:35;10.63;;;3.97;;
77451;SDS011;66537;52.370;4.832;2023-02-28T01:37:01;12.98;;;3.85;;
77451;SDS011;66537;52.370;4.832;2023-02-28T01:39:26;9.68;;;3.38;;
77451;SDS011;66537;52.370;4.832;2023-02-28T01:41:51;8.77;;;3.55;;
77451;SDS011;66537;52.370;4.832;2023-02-28T01:47:22;8.00;;;2.90;;
77451;SDS011;66537;52.370;4.832;2023-02-28T01:49:49;8.60;;;3.00;;
77451;SDS011;66537;52.370;4.832;2023-02-28T01:52:16;7.35;;;3.83;;
77451;SDS011;66537;52.370;4.832;2023-02-28T01:54:43;7.88;;;2.60;;
77451;SDS011;66537;52.370;4.832;2023-02-28T01:57:14;7.75;;;2.83;;
77451;SDS011;66537;52.370;4.832;2023-02-28T01:59:47;8.45;;;2.75;;
77451;SDS011;66537;52.370;4.832;2023-02-28T02:02:20;10.52;;;2.58;;
77451;SDS011;66537;52.370;4.832;2023-02-28T02:04:53;7.93;;;2.22;;
77451;SDS011;66537;52.370;4.832;2023-02-28T02:07:22;9.35;;;2.70;;
77451;SDS011;66537;52.370;4.832;2023-02-28T02:09:50;9.52;;;2.42;;
77451;SDS011;66537;52.370;4.832;2023-02-28T02:12:27;8.27;;;2.47;;
77451;SDS011;66537;52.370;4.832;2023-02-28T02:15:01;10.35;;;2.10;;
77451;SDS011;66537;52.370;4.832;2023-02-28T02:17:39;7.13;;;2.17;;
77451;SDS011;66537;52.370;4.832;2023-02-28T02:39:44;7.97;;;2.25;;
77451;SDS011;66537;52.370;4.832;2023-02-28T02:42:27;6.32;;;2.20;;
77451;SDS011;66537;52.370;4.832;2023-02-28T02:45:01;8.00;;;2.42;;
77451;SDS011;66537;52.370;4.832;2023-02-28T02:47:31;9.10;;;2.38;;
77451;SDS011;66537;52.370;4.832;2023-02-28T02:49:59;8.25;;;2.22;;
77451;SDS011;66537;52.370;4.832;2023-02-28T02:52:38;9.25;;;1.95;;
77451;SDS011;66537;52.370;4.832;2023-02-28T02:55:08;6.85;;;1.92;;
77451;SDS011;66537;52.370;4.832;2023-02-28T02:57:37;9.07;;;2.28;;
77451;SDS011;66537;52.370;4.832;2023-02-28T03:00:07;6.47;;;2.00;;
77451;SDS011;66537;52.370;4.832;2023-02-28T03:02:35;6.35;;;1.70;;
77451;SDS011;66537;52.370;4.832;2023-02-28T03:05:04;7.78;;;1.90;;
77451;SDS011;66537;52.370;4.832;2023-02-28T03:07:38;7.05;;;2.13;;
77451;SDS011;66537;52.370;4.832;2023-02-28T03:10:25;8.53;;;1.70;;
77451;SDS011;66537;52.370;4.832;2023-02-28T03:15:42;10.93;;;2.20;;
77451;SDS011;66537;52.370;4.832;2023-02-28T03:18:36;7.13;;;1.60;;
77451;SDS011;66537;52.370;4.832;2023-02-28T03:23:50;8.57;;;2.15;;
77451;SDS011;66537;52.370;4.832;2023-02-28T03:26:29;9.25;;;2.22;;
77451;SDS011;66537;52.370;4.832;2023-02-28T03:32:21;8.82;;;2.03;;
77451;SDS011;66537;52.370;4.832;2023-02-28T03:37:40;9.18;;;2.15;;
77451;SDS011;66537;52.370;4.832;2023-02-28T03:40:15;10.77;;;2.63;;
77451;SDS011;66537;52.370;4.832;2023-02-28T03:42:48;9.82;;;2.08;;
77451;SDS011;66537;52.370;4.832;2023-02-28T03:45:28;9.32;;;2.40;;
77451;SDS011;66537;52.370;4.832;2023-02-28T03:48:13;11.23;;;2.22;;
77451;SDS011;66537;52.370;4.832;2023-02-28T03:50:47;12.38;;;2.97;;
77451;SDS011;66537;52.370;4.832;2023-02-28T03:56:06;10.43;;;2.72;;
77451;SDS011;66537;52.370;4.832;2023-02-28T04:04:03;9.20;;;2.85;;
77451;SDS011;66537;52.370;4.832;2023-02-28T04:06:30;14.13;;;3.85;;
77451;SDS011;66537;52.370;4.832;2023-02-28T04:08:57;14.32;;;3.00;;
77451;SDS011;66537;52.370;4.832;2023-02-28T04:11:23;7.18;;;2.80;;
77451;SDS011;66537;52.370;4.832;2023-02-28T04:13:57;11.30;;;2.80;;
77451;SDS011;66537;52.370;4.832;2023-02-28T04:16:23;8.15;;;2.40;;
77451;SDS011;66537;52.370;4.832;2023-02-28T04:18:48;10.27;;;2.25;;
77451;SDS011;66537;52.370;4.832;2023-02-28T04:21:14;9.57;;;2.28;;
77451;SDS011;66537;52.370;4.832;2023-02-28T04:23:39;6.05;;;2.00;;
77451;SDS011;66537;52.370;4.832;2023-02-28T04:26:04;7.07;;;1.90;;
77451;SDS011;66537;52.370;4.832;2023-02-28T04:28:31;10.40;;;2.13;;
77451;SDS011;66537;52.370;4.832;2023-02-28T04:30:57;5.57;;;1.85;;
77451;SDS011;66537;52.370;4.832;2023-02-28T04:33:27;6.55;;;2.03;;
77451;SDS011;66537;52.370;4.832;2023-02-28T04:36:00;7.05;;;2.05;;
77451;SDS011;66537;52.370;4.832;2023-02-28T04:38:28;6.03;;;1.48;;
77451;SDS011;66537;52.370;4.832;2023-02-28T04:41:00;5.75;;;1.42;;
77451;SDS011;66537;52.370;4.832;2023-02-28T04:43:27;6.07;;;1.20;;
77451;SDS011;66537;52.370;4.832;2023-02-28T04:45:53;5.13;;;1.48;;
77451;SDS011;66537;52.370;4.832;2023-02-28T04:48:21;5.13;;;1.38;;
77451;SDS011;66537;52.370;4.832;2023-02-28T04:50:50;5.25;;;1.40;;
77451;SDS011;66537;52.370;4.832;2023-02-28T04:53:16;4.13;;;1.10;;
77451;SDS011;66537;52.370;4.832;2023-02-28T04:55:42;5.93;;;1.20;;
77451;SDS011;66537;52.370;4.832;2023-02-28T04:58:07;5.97;;;1.60;;
77451;SDS011;66537;52.370;4.832;2023-02-28T05:00:32;5.88;;;1.40;;
77451;SDS011;66537;52.370;4.832;2023-02-28T05:02:58;6.33;;;1.60;;
77451;SDS011;66537;52.370;4.832;2023-02-28T05:05:23;6.15;;;1.63;;
77451;SDS011;66537;52.370;4.832;2023-02-28T05:07:48;8.23;;;2.17;;
77451;SDS011;66537;52.370;4.832;2023-02-28T05:10:14;6.23;;;1.70;;
77451;SDS011;66537;52.370;4.832;2023-02-28T05:12:39;6.78;;;1.65;;
77451;SDS011;66537;52.370;4.832;2023-02-28T05:15:05;7.30;;;1.80;;
77451;SDS011;66537;52.370;4.832;2023-02-28T05:17:31;6.10;;;1.58;;
77451;SDS011;66537;52.370;4.832;2023-02-28T05:19:56;5.27;;;1.53;;
77451;SDS011;66537;52.370;4.832;2023-02-28T05:22:21;6.40;;;1.90;;
77451;SDS011;66537;52.370;4.832;2023-02-28T05:24:47;9.40;;;2.22;;
77451;SDS011;66537;52.370;4.832;2023-02-28T05:27:12;6.33;;;1.80;;
77451;SDS011;66537;52.370;4.832;2023-02-28T05:29:38;5.65;;;1.77;;
77451;SDS011;66537;52.370;4.832;2023-02-28T05:32:11;5.13;;;1.63;;
77451;SDS011;66537;52.370;4.832;2023-02-28T05:34:40;8.98;;;2.42;;
77451;SDS011;66537;52.370;4.832;2023-02-28T05:37:07;6.32;;;2.03;;
77451;SDS011;66537;52.370;4.832;2023-02-28T05:39:37;5.50;;;2.20;;
77451;SDS011;66537;52.370;4.832;2023-02-28T05:42:02;7.75;;;2.65;;
77451;SDS011;66537;52.370;4.832;2023-02-28T05:44:28;12.50;;;3.70;;
77451;SDS011;66537;52.370;4.832;2023-02-28T05:46:53;7.30;;;2.47;;
77451;SDS011;66537;52.370;4.832;2023-02-28T05:49:18;7.30;;;2.25;;
77451;SDS011;66537;52.370;4.832;2023-02-28T05:51:44;5.75;;;2.65;;
77451;SDS011;66537;52.370;4.832;2023-02-28T05:54:09;7.47;;;2.85;;
77451;SDS011;66537;52.370;4.832;2023-02-28T05:56:34;8.27;;;2.47;;
77451;SDS011;66537;52.370;4.832;2023-02-28T05:59:00;11.18;;;2.80;;
77451;SDS011;66537;52.370;4.832;2023-02-28T06:01:36;8.20;;;3.28;;
77451;SDS011;66537;52.370;4.832;2023-02-28T06:04:04;7.20;;;3.17;;
77451;SDS011;66537;52.370;4.832;2023-02-28T06:06:35;10.20;;;3.42;;
77451;SDS011;66537;52.370;4.832;2023-02-28T06:09:02;7.78;;;3.40;;
77451;SDS011;66537;52.370;4.832;2023-02-28T06:11:30;8.30;;;3.33;;
77451;SDS011;66537;52.370;4.832;2023-02-28T06:13:56;8.30;;;3.38;;
77451;SDS011;66537;52.370;4.832;2023-02-28T06:16:24;10.60;;;4.35;;
77451;SDS011;66537;52.370;4.832;2023-02-28T06:18:51;10.05;;;4.93;;
77451;SDS011;66537;52.370;4.832;2023-02-28T06:21:17;9.65;;;4.55;;
77451;SDS011;66537;52.370;4.832;2023-02-28T06:23:43;10.80;;;4.70;;
77451;SDS011;66537;52.370;4.832;2023-02-28T06:26:09;12.13;;;5.10;;
77451;SDS011;66537;52.370;4.832;2023-02-28T06:28:34;14.00;;;5.80;;
77451;SDS011;66537;52.370;4.832;2023-02-28T06:31:05;15.27;;;5.78;;
77451;SDS011;66537;52.370;4.832;2023-02-28T06:33:34;10.57;;;5.13;;
77451;SDS011;66537;52.370;4.832;2023-02-28T06:35:59;10.50;;;5.68;;
77451;SDS011;66537;52.370;4.832;2023-02-28T06:38:25;12.18;;;4.95;;
77451;SDS011;66537;52.370;4.832;2023-02-28T06:40:53;10.53;;;5.37;;
77451;SDS011;66537;52.370;4.832;2023-02-28T06:43:20;15.93;;;6.45;;
77451;SDS011;66537;52.370;4.832;2023-02-28T06:45:46;10.85;;;5.90;;
77451;SDS011;66537;52.370;4.832;2023-02-28T06:48:11;12.23;;;5.78;;
77451;SDS011;66537;52.370;4.832;2023-02-28T06:50:37;12.95;;;5.60;;
77451;SDS011;66537;52.370;4.832;2023-02-28T06:53:03;14.00;;;6.28;;
77451;SDS011;66537;52.370;4.832;2023-02-28T06:55:28;11.50;;;5.88;;
77451;SDS011;66537;52.370;4.832;2023-02-28T06:57:53;12.93;;;6.55;;
77451;SDS011;66537;52.370;4.832;2023-02-28T07:00:20;12.32;;;6.55;;
77451;SDS011;66537;52.370;4.832;2023-02-28T07:02:45;15.20;;;6.05;;
77451;SDS011;66537;52.370;4.832;2023-02-28T07:05:12;13.82;;;6.72;;
77451;SDS011;66537;52.370;4.832;2023-02-28T07:07:37;13.73;;;6.47;;
77451;SDS011;66537;52.370;4.832;2023-02-28T07:10:05;12.65;;;6.28;;
77451;SDS011;66537;52.370;4.832;2023-02-28T07:12:31;9.00;;;4.50;;
77451;SDS011;66537;52.370;4.832;2023-02-28T07:14:56;9.23;;;4.53;;
77451;SDS011;66537;52.370;4.832;2023-02-28T07:17:22;9.65;;;4.47;;
77451;SDS011;66537;52.370;4.832;2023-02-28T07:19:47;8.90;;;4.83;;
77451;SDS011;66537;52.370;4.832;2023-02-28T07:22:12;14.07;;;5.37;;
77451;SDS011;66537;52.370;4.832;2023-02-28T07:24:38;8.85;;;4.63;;
77451;SDS011;66537;52.370;4.832;2023-02-28T07:27:03;12.02;;;5.15;;
77451;SDS011;66537;52.370;4.832;2023-02-28T07:29:28;11.00;;;5.00;;
77451;SDS011;66537;52.370;4.832;2023-02-28T07:31:54;10.15;;;4.35;;
77451;SDS011;66537;52.370;4.832;2023-02-28T07:34:20;10.18;;;5.15;;
77451;SDS011;66537;52.370;4.832;2023-02-28T07:36:46;8.95;;;4.53;;
77451;SDS011;66537;52.370;4.832;2023-02-28T07:39:11;10.20;;;4.22;;
77451;SDS011;66537;52.370;4.832;2023-02-28T07:41:37;8.13;;;3.92;;
77451;SDS011;66537;52.370;4.832;2023-02-28T07:44:08;8.45;;;3.63;;
77451;SDS011;66537;52.370;4.832;2023-02-28T07:46:35;8.00;;;3.90;;
77451;SDS011;66537;52.370;4.832;2023-02-28T07:49:01;9.07;;;4.03;;
77451;SDS011;66537;52.370;4.832;2023-02-28T07:51:28;9.25;;;3.72;;
77451;SDS011;66537;52.370;4.832;2023-02-28T07:53:53;10.23;;;4.53;;
77451;SDS011;66537;52.370;4.832;2023-02-28T07:56:19;8.83;;;4.13;;
77451;SDS011;66537;52.370;4.832;2023-02-28T07:58:44;7.13;;;3.65;;
77451;SDS011;66537;52.370;4.832;2023-02-28T08:01:10;9.07;;;4.00;;
77451;SDS011;66537;52.370;4.832;2023-02-28T08:03:36;8.70;;;3.95;;
77451;SDS011;66537;52.370;4.832;2023-02-28T08:06:05;10.30;;;4.60;;
77451;SDS011;66537;52.370;4.832;2023-02-28T08:08:32;7.13;;;3.75;;
77451;SDS011;66537;52.370;4.832;2023-02-28T08:10:58;6.78;;;3.42;;
77451;SDS011;66537;52.370;4.832;2023-02-28T08:13:26;10.52;;;4.05;;
77451;SDS011;66537;52.370;4.832;2023-02-28T08:15:52;8.13;;;3.88;;
77451;SDS011;66537;52.370;4.832;2023-02-28T08:18:19;8.13;;;3.45;;
77451;SDS011;66537;52.370;4.832;2023-02-28T08:20:44;8.95;;;4.07;;
77451;SDS011;66537;52.370;4.832;2023-02-28T08:23:10;9.10;;;4.10;;
77451;SDS011;66537;52.370;4.832;2023-02-28T08:25:35;8.02;;;4.15;;
77451;SDS011;66537;52.370;4.832;2023-02-28T08:28:00;10.97;;;5.20;;
77451;SDS011;66537;52.370;4.832;2023-02-28T08:30:26;8.38;;;4.22;;
77451;SDS011;66537;52.370;4.832;2023-02-28T08:32:51;9.07;;;4.05;;
77451;SDS011;66537;52.370;4.832;2023-02-28T08:35:16;9.48;;;4.63;;
77451;SDS011;66537;52.370;4.832;2023-02-28T08:37:42;7.45;;;4.22;;
77451;SDS011;66537;52.370;4.832;2023-02-28T08:40:07;8.35;;;3.72;;
77451;SDS011;66537;52.370;4.832;2023-02-28T08:42:33;9.57;;;4.78;;
77451;SDS011;66537;52.370;4.832;2023-02-28T08:44:59;8.07;;;4.10;;
77451;SDS011;66537;52.370;4.832;2023-02-28T08:47:24;7.93;;;3.23;;
77451;SDS011;66537;52.370;4.832;2023-02-28T08:49:49;9.13;;;3.58;;
77451;SDS011;66537;52.370;4.832;2023-02-28T08:52:15;9.10;;;3.87;;
77451;SDS011;66537;52.370;4.832;2023-02-28T08:54:40;8.68;;;3.40;;
77451;SDS011;66537;52.370;4.832;2023-02-28T08:57:06;7.68;;;4.00;;
77451;SDS011;66537;52.370;4.832;2023-02-28T08:59:31;8.02;;;3.78;;
77451;SDS011;66537;52.370;4.832;2023-02-28T09:01:57;8.55;;;4.20;;
77451;SDS011;66537;52.370;4.832;2023-02-28T09:04:22;9.05;;;4.45;;
77451;SDS011;66537;52.370;4.832;2023-02-28T09:06:48;9.48;;;3.80;;
77451;SDS011;66537;52.370;4.832;2023-02-28T09:09:14;8.52;;;4.00;;
77451;SDS011;66537;52.370;4.832;2023-02-28T09:11:39;7.70;;;3.78;;
77451;SDS011;66537;52.370;4.832;2023-02-28T09:14:05;7.67;;;3.60;;
77451;SDS011;66537;52.370;4.832;2023-02-28T09:16:31;6.75;;;3.53;;
77451;SDS011;66537;52.370;4.832;2023-02-28T09:18:57;8.23;;;3.60;;
77451;SDS011;66537;52.370;4.832;2023-02-28T09:21:23;7.72;;;3.70;;
77451;SDS011;66537;52.370;4.832;2023-02-28T09:23:49;9.35;;;4.30;;
77451;SDS011;66537;52.370;4.832;2023-02-28T09:26:17;6.53;;;3.45;;
77451;SDS011;66537;52.370;4.832;2023-02-28T09:28:44;9.52;;;4.47;;
77451;SDS011;66537;52.370;4.832;2023-02-28T09:31:11;9.27;;;4.07;;
77451;SDS011;66537;52.370;4.832;2023-02-28T09:33:39;7.63;;;3.35;;
77451;SDS011;66537;52.370;4.832;2023-02-28T09:36:04;7.72;;;3.60;;
77451;SDS011;66537;52.370;4.832;2023-02-28T09:38:30;9.40;;;3.35;;
77451;SDS011;66537;52.370;4.832;2023-02-28T09:40:56;7.00;;;3.20;;
77451;SDS011;66537;52.370;4.832;2023-02-28T09:43:25;7.72;;;3.72;;
77451;SDS011;66537;52.370;4.832;2023-02-28T09:45:59;9.18;;;3.47;;
77451;SDS011;66537;52.370;4.832;2023-02-28T09:48:32;8.30;;;3.47;;
77451;SDS011;66537;52.370;4.832;2023-02-28T09:53:48;7.72;;;2.97;;
77451;SDS011;66537;52.370;4.832;2023-02-28T09:59:13;6.97;;;2.60;;
77451;SDS011;66537;52.370;4.832;2023-02-28T10:01:51;5.90;;;2.72;;
77451;SDS011;66537;52.370;4.832;2023-02-28T10:07:16;7.80;;;2.35;;
77451;SDS011;66537;52.370;4.832;2023-02-28T10:10:03;5.45;;;2.05;;
77451;SDS011;66537;52.370;4.832;2023-02-28T10:12:41;5.28;;;1.83;;
77451;SDS011;66537;52.370;4.832;2023-02-28T10:15:13;5.07;;;2.00;;
77451;SDS011;66537;52.370;4.832;2023-02-28T10:17:40;5.45;;;1.92;;
77451;SDS011;66537;52.370;4.832;2023-02-28T10:20:11;7.95;;;2.30;;
77451;SDS011;66537;52.370;4.832;2023-02-28T10:22:53;5.72;;;1.60;;
77451;SDS011;66537;52.370;4.832;2023-02-28T10:25:32;8.23;;;2.25;;
77451;SDS011;66537;52.370;4.832;2023-02-28T10:28:16;6.43;;;1.98;;
77451;SDS011;66537;52.370;4.832;2023-02-28T10:30:47;4.70;;;1.75;;
77451;SDS011;66537;52.370;4.832;2023-02-28T10:33:18;4.95;;;1.55;;
77451;SDS011;66537;52.370;4.832;2023-02-28T10:36:03;5.38;;;1.60;;
77451;SDS011;66537;52.370;4.832;2023-02-28T10:41:06;5.63;;;1.40;;
77451;SDS011;66537;52.370;4.832;2023-02-28T10:43:33;7.35;;;1.40;;
77451;SDS011;66537;52.370;4.832;2023-02-28T10:46:00;6.00;;;1.70;;
77451;SDS011;66537;52.370;4.832;2023-02-28T10:48:30;5.95;;;1.80;;
77451;SDS011;66537;52.370;4.832;2023-02-28T10:51:04;6.57;;;1.85;;
77451;SDS011;66537;52.370;4.832;2023-02-28T10:53:33;5.07;;;1.40;;
77451;SDS011;66537;52.370;4.832;2023-02-28T11:03:50;4.30;;;1.40;;
77451;SDS011;66537;52.370;4.832;2023-02-28T11:08:53;4.13;;;1.20;;
77451;SDS011;66537;52.370;4.832;2023-02-28T11:11:21;5.65;;;1.58;;
77451;SDS011;66537;52.370;4.832;2023-02-28T11:13:50;4.32;;;1.30;;
77451;SDS011;66537;52.370;4.832;2023-02-28T11:22:03;4.88;;;1.50;;
77451;SDS011;66537;52.370;4.832;2023-02-28T11:24:31;4.20;;;1.55;;
77451;SDS011;66537;52.370;4.832;2023-02-28T11:27:00;4.47;;;1.15;;
77451;SDS011;66537;52.370;4.832;2023-02-28T11:29:32;3.95;;;1.10;;
77451;SDS011;66537;52.370;4.832;2023-02-28T11:34:40;5.43;;;1.35;;
77451;SDS011;66537;52.370;4.832;2023-02-28T11:37:10;4.03;;;1.08;;
77451;SDS011;66537;52.370;4.832;2023-02-28T11:39:44;4.57;;;1.05;;
77451;SDS011;66537;52.370;4.832;2023-02-28T11:45:19;3.53;;;1.15;;
77451;SDS011;66537;52.370;4.832;2023-02-28T11:53:00;3.20;;;1.25;;
77451;SDS011;66537;52.370;4.832;2023-02-28T12:15:02;3.42;;;1.38;;
77451;SDS011;66537;52.370;4.832;2023-02-28T12:22:56;5.93;;;1.50;;
77451;SDS011;66537;52.370;4.832;2023-02-28T12:28:21;4.35;;;1.30;;
77451;SDS011;66537;52.370;4.832;2023-02-28T12:33:21;3.97;;;1.20;;
77451;SDS011;66537;52.370;4.832;2023-02-28T12:35:55;3.95;;;1.42;;
77451;SDS011;66537;52.370;4.832;2023-02-28T12:38:22;4.97;;;1.67;;
77451;SDS011;66537;52.370;4.832;2023-02-28T12:40:55;4.13;;;1.33;;
77451;SDS011;66537;52.370;4.832;2023-02-28T12:43:26;3.63;;;1.02;;
77451;SDS011;66537;52.370;4.832;2023-02-28T12:45:57;4.50;;;1.10;;
77451;SDS011;66537;52.370;4.832;2023-02-28T12:48:36;5.63;;;1.55;;
77451;SDS011;66537;52.370;4.832;2023-02-28T12:51:05;5.22;;;1.58;;
77451;SDS011;66537;52.370;4.832;2023-02-28T12:53:38;4.05;;;1.20;;
77451;SDS011;66537;52.370;4.832;2023-02-28T12:59:03;6.45;;;1.25;;
77451;SDS011;66537;52.370;4.832;2023-02-28T13:07:20;4.15;;;1.20;;
77451;SDS011;66537;52.370;4.832;2023-02-28T13:10:11;3.45;;;1.13;;
77451;SDS011;66537;52.370;4.832;2023-02-28T13:12:46;3.50;;;1.10;;
77451;SDS011;66537;52.370;4.832;2023-02-28T13:15:21;4.25;;;0.98;;
77451;SDS011;66537;52.370;4.832;2023-02-28T13:17:51;4.47;;;1.20;;
77451;SDS011;66537;52.370;4.832;2023-02-28T13:26:05;4.13;;;1.13;;
77451;SDS011;66537;52.370;4.832;2023-02-28T13:31:14;3.70;;;1.02;;
77451;SDS011;66537;52.370;4.832;2023-02-28T13:46:24;5.03;;;1.40;;
77451;SDS011;66537;52.370;4.832;2023-02-28T13:48:49;4.70;;;1.47;;
77451;SDS011;66537;52.370;4.832;2023-02-28T13:51:38;5.63;;;1.70;;
77451;SDS011;66537;52.370;4.832;2023-02-28T13:59:23;9.90;;;1.80;;
77451;SDS011;66537;52.370;4.832;2023-02-28T14:02:13;4.25;;;1.45;;
77451;SDS011;66537;52.370;4.832;2023-02-28T14:04:58;5.72;;;1.50;;
77451;SDS011;66537;52.370;4.832;2023-02-28T14:07:28;4.38;;;1.30;;
77451;SDS011;66537;52.370;4.832;2023-02-28T14:17:57;4.28;;;1.40;;
77451;SDS011;66537;52.370;4.832;2023-02-28T14:20:31;3.97;;;1.40;;
77451;SDS011;66537;52.370;4.832;2023-02-28T14:23:02;4.30;;;1.40;;
77451;SDS011;66537;52.370;4.832;2023-02-28T14:26:00;8.20;;;1.70;;
77451;SDS011;66537;52.370;4.832;2023-02-28T14:31:37;5.72;;;1.40;;
77451;SDS011;66537;52.370;4.832;2023-02-28T14:36:57;3.85;;;1.40;;
77451;SDS011;66537;52.370;4.832;2023-02-28T14:39:26;4.95;;;1.30;;
77451;SDS011;66537;52.370;4.832;2023-02-28T14:41:55;5.28;;;1.40;;
77451;SDS011;66537;52.370;4.832;2023-02-28T14:44:27;4.82;;;1.25;;
77451;SDS011;66537;52.370;4.832;2023-02-28T14:46:56;5.03;;;1.30;;
77451;SDS011;66537;52.370;4.832;2023-02-28T14:49:37;4.13;;;1.63;;
77451;SDS011;66537;52.370;4.832;2023-02-28T14:54:58;4.20;;;1.63;;
77451;SDS011;66537;52.370;4.832;2023-02-28T14:57:33;4.13;;;1.45;;
77451;SDS011;66537;52.370;4.832;2023-02-28T15:02:37;5.47;;;1.63;;
77451;SDS011;66537;52.370;4.832;2023-02-28T15:07:37;4.35;;;1.38;;
77451;SDS011;66537;52.370;4.832;2023-02-28T15:10:06;4.88;;;1.40;;
77451;SDS011;66537;52.370;4.832;2023-02-28T15:12:45;4.43;;;1.75;;
77451;SDS011;66537;52.370;4.832;2023-02-28T15:15:21;4.32;;;1.60;;
77451;SDS011;66537;52.370;4.832;2023-02-28T15:17:52;5.60;;;1.40;;
77451;SDS011;66537;52.370;4.832;2023-02-28T15:20:22;4.10;;;1.27;;
77451;SDS011;66537;52.370;4.832;2023-02-28T15:22:49;4.82;;;1.38;;
77451;SDS011;66537;52.370;4.832;2023-02-28T15:25:18;4.60;;;1.52;;
77451;SDS011;66537;52.370;4.832;2023-02-28T15:27:47;5.18;;;1.50;;
77451;SDS011;66537;52.370;4.832;2023-02-28T15:30:20;4.55;;;1.42;;
77451;SDS011;66537;52.370;4.832;2023-02-28T15:33:05;5.20;;;1.50;;
77451;SDS011;66537;52.370;4.832;2023-02-28T15:35:45;4.25;;;1.55;;
77451;SDS011;66537;52.370;4.832;2023-02-28T15:40:45;3.97;;;1.38;;
77451;SDS011;66537;52.370;4.832;2023-02-28T15:43:28;6.40;;;2.22;;
77451;SDS011;66537;52.370;4.832;2023-02-28T15:51:27;5.10;;;1.90;;
77451;SDS011;66537;52.370;4.832;2023-02-28T15:53:59;4.55;;;1.55;;
77451;SDS011;66537;52.370;4.832;2023-02-28T15:56:27;5.85;;;1.75;;
77451;SDS011;66537;52.370;4.832;2023-02-28T15:58:58;4.35;;;1.88;;
77451;SDS011;66537;52.370;4.832;2023-02-28T16:01:30;4.38;;;1.33;;
77451;SDS011;66537;52.370;4.832;2023-02-28T16:03:59;4.47;;;1.50;;
77451;SDS011;66537;52.370;4.832;2023-02-28T16:09:05;3.88;;;1.13;;
77451;SDS011;66537;52.370;4.832;2023-02-28T16:11:33;5.65;;;1.45;;
77451;SDS011;66537;52.370;4.832;2023-02-28T16:14:00;4.70;;;1.50;;
77451;SDS011;66537;52.370;4.832;2023-02-28T16:16:25;4.85;;;1.75;;
77451;SDS011;66537;52.370;4.832;2023-02-28T16:18:51;4.60;;;1.67;;
77451;SDS011;66537;52.370;4.832;2023-02-28T16:21:17;4.30;;;1.58;;
77451;SDS011;66537;52.370;4.832;2023-02-28T16:23:43;5.38;;;1.60;;
77451;SDS011;66537;52.370;4.832;2023-02-28T16:26:10;4.72;;;1.60;;
77451;SDS011;66537;52.370;4.832;2023-02-28T16:28:44;4.03;;;1.70;;
77451;SDS011;66537;52.370;4.832;2023-02-28T16:31:09;5.22;;;1.58;;
77451;SDS011;66537;52.370;4.832;2023-02-28T16:33:41;5.38;;;1.70;;
77451;SDS011;66537;52.370;4.832;2023-02-28T16:36:08;8.38;;;1.83;;
77451;SDS011;66537;52.370;4.832;2023-02-28T16:38:37;4.68;;;1.58;;
77451;SDS011;66537;52.370;4.832;2023-02-28T16:41:03;4.65;;;1.75;;
77451;SDS011;66537;52.370;4.832;2023-02-28T16:43:28;5.13;;;1.30;;
77451;SDS011;66537;52.370;4.832;2023-02-28T16:45:54;4.78;;;1.20;;
77451;SDS011;66537;52.370;4.832;2023-02-28T16:48:22;5.63;;;1.60;;
77451;SDS011;66537;52.370;4.832;2023-02-28T16:50:48;5.22;;;1.52;;
77451;SDS011;66537;52.370;4.832;2023-02-28T16:53:13;5.25;;;1.73;;
77451;SDS011;66537;52.370;4.832;2023-02-28T16:55:39;5.07;;;1.53;;
77451;SDS011;66537;52.370;4.832;2023-02-28T16:58:04;5.18;;;1.67;;
77451;SDS011;66537;52.370;4.832;2023-02-28T17:00:30;5.50;;;1.65;;
77451;SDS011;66537;52.370;4.832;2023-02-28T17:02:57;5.80;;;1.83;;
77451;SDS011;66537;52.370;4.832;2023-02-28T17:05:24;5.18;;;1.85;;
77451;SDS011;66537;52.370;4.832;2023-02-28T17:07:50;5.68;;;1.73;;
77451;SDS011;66537;52.370;4.832;2023-02-28T17:10:23;3.35;;;1.40;;
77451;SDS011;66537;52.370;4.832;2023-02-28T17:12:50;4.40;;;1.80;;
77451;SDS011;66537;52.370;4.832;2023-02-28T17:15:16;4.30;;;1.75;;
77451;SDS011;66537;52.370;4.832;2023-02-28T17:17:43;4.63;;;1.70;;
77451;SDS011;66537;52.370;4.832;2023-02-28T17:20:13;6.38;;;2.20;;
77451;SDS011;66537;52.370;4.832;2023-02-28T17:22:40;8.63;;;1.98;;
77451;SDS011;66537;52.370;4.832;2023-02-28T17:25:06;5.10;;;1.80;;
77451;SDS011;66537;52.370;4.832;2023-02-28T17:27:32;4.45;;;1.80;;
77451;SDS011;66537;52.370;4.832;2023-02-28T17:29:57;7.63;;;2.20;;
77451;SDS011;66537;52.370;4.832;2023-02-28T17:32:23;6.32;;;2.33;;
77451;SDS011;66537;52.370;4.832;2023-02-28T17:34:48;5.65;;;2.13;;
77451;SDS011;66537;52.370;4.832;2023-02-28T17:37:14;5.50;;;2.88;;
77451;SDS011;66537;52.370;4.832;2023-02-28T17:39:39;5.72;;;2.60;;
77451;SDS011;66537;52.370;4.832;2023-02-28T17:42:05;7.90;;;2.53;;
77451;SDS011;66537;52.370;4.832;2023-02-28T17:44:30;6.07;;;2.20;;
77451;SDS011;66537;52.370;4.832;2023-02-28T17:46:56;6.18;;;2.90;;
77451;SDS011;66537;52.370;4.832;2023-02-28T17:49:21;7.95;;;2.25;;
77451;SDS011;66537;52.370;4.832;2023-02-28T17:51:47;6.13;;;2.80;;
77451;SDS011;66537;52.370;4.832;2023-02-28T17:54:13;7.35;;;3.90;;